createdAt,value
2024-02-06T00:00:34.370Z,78.53
2024-02-06T00:01:34.447Z,78.43
2024-02-06T00:02:34.322Z,78.53
2024-02-06T00:03:34.319Z,78.33
2024-02-06T00:04:34.452Z,78.43
2024-02-06T00:05:34.323Z,78.43
2024-02-06T00:06:34.292Z,78.53
2024-02-06T00:07:36.235Z,78.43
2024-02-06T00:08:34.305Z,78.43
2024-02-06T00:09:34.264Z,78.12
2024-02-06T00:10:34.313Z,78.02
2024-02-06T00:11:34.226Z,77.92
2024-02-06T00:12:34.253Z,78.02
2024-02-06T00:13:34.228Z,78.02
2024-02-06T00:14:34.243Z,77.81
2024-02-06T00:15:34.190Z,78.02
2024-02-06T00:16:34.298Z,77.92
2024-02-06T00:17:34.189Z,77.71
2024-02-06T00:18:34.177Z,77.92
2024-02-06T00:19:34.240Z,77.92
2024-02-06T00:20:34.247Z,77.92
2024-02-06T00:21:34.125Z,77.92
2024-02-06T00:22:34.241Z,78.12
2024-02-06T00:23:34.094Z,77.92
2024-02-06T00:24:34.102Z,77.92
2024-02-06T00:25:34.196Z,78.12
2024-02-06T00:26:34.083Z,78.02
2024-02-06T00:27:34.040Z,77.71
2024-02-06T00:28:34.106Z,77.81
2024-02-06T00:29:34.034Z,77.81
2024-02-06T00:30:34.037Z,77.71
2024-02-06T00:31:34.092Z,78.02
2024-02-06T00:32:34.071Z,78.02
2024-02-06T00:33:34.088Z,78.12
2024-02-06T00:34:34.182Z,77.51
2024-02-06T00:35:33.980Z,77.71
2024-02-06T00:36:33.961Z,77.71
2024-02-06T00:37:34.200Z,77.40
2024-02-06T00:38:33.954Z,77.30
2024-02-06T00:39:33.945Z,77.30
2024-02-06T00:40:33.991Z,77.40
2024-02-06T00:41:33.936Z,77.61
2024-02-06T00:42:33.901Z,77.40
2024-02-06T00:43:33.994Z,77.51
2024-02-06T00:44:33.883Z,77.20
2024-02-06T00:45:34.009Z,77.44
2024-02-06T00:46:33.914Z,77.34
2024-02-06T00:47:33.905Z,77.10
2024-02-06T00:48:34.078Z,77.03
2024-02-06T00:49:34.076Z,77.00
2024-02-06T00:50:34.037Z,76.68
2024-02-06T00:51:33.818Z,76.79
2024-02-06T00:52:33.815Z,76.68
2024-02-06T00:53:33.804Z,76.68
2024-02-06T00:54:33.772Z,76.58
2024-02-06T00:55:33.768Z,76.68
2024-02-06T00:56:33.727Z,76.58
2024-02-06T00:57:33.712Z,76.38
2024-02-06T00:58:33.970Z,76.38
2024-02-06T00:59:33.721Z,76.28
2024-02-06T01:00:33.688Z,76.28
2024-02-06T01:01:33.861Z,76.38
2024-02-06T01:02:33.686Z,76.48
2024-02-06T01:03:33.696Z,76.17
2024-02-06T01:04:33.768Z,76.38
2024-02-06T01:05:33.675Z,76.28
2024-02-06T01:06:33.690Z,76.48
2024-02-06T01:07:33.718Z,76.28
2024-02-06T01:08:33.633Z,76.28
2024-02-06T01:09:33.606Z,76.38
2024-02-06T01:10:33.661Z,76.28
2024-02-06T01:11:33.616Z,76.17
2024-02-06T01:12:33.560Z,76.48
2024-02-06T01:13:33.703Z,76.17
2024-02-06T01:14:33.527Z,76.28
2024-02-06T01:15:33.531Z,76.38
2024-02-06T01:16:33.625Z,76.28
2024-02-06T01:17:33.559Z,76.17
2024-02-06T01:18:33.522Z,76.28
2024-02-06T01:19:33.596Z,76.38
2024-02-06T01:20:33.461Z,76.28
2024-02-06T01:21:33.485Z,76.28
2024-02-06T01:22:33.577Z,76.38
2024-02-06T01:23:33.448Z,76.17
2024-02-06T01:24:33.453Z,76.38
2024-02-06T01:25:33.701Z,76.17
2024-02-06T01:26:33.398Z,76.38
2024-02-06T01:27:33.462Z,76.28
2024-02-06T01:28:33.681Z,76.48
2024-02-06T01:29:33.376Z,76.38
2024-02-06T01:30:33.380Z,76.28
2024-02-06T01:31:33.504Z,76.58
2024-02-06T01:32:33.387Z,76.68
2024-02-06T01:33:33.431Z,76.68
2024-02-06T01:34:33.408Z,76.82
2024-02-06T01:35:33.357Z,77.03
2024-02-06T01:36:33.305Z,77.03
2024-02-06T01:37:33.398Z,77.03
2024-02-06T01:38:33.305Z,77.13
2024-02-06T01:39:33.272Z,77.13
2024-02-06T01:40:33.334Z,77.23
2024-02-06T01:41:33.251Z,77.23
2024-02-06T01:42:33.232Z,77.23
2024-02-06T01:43:33.317Z,77.44
2024-02-06T01:44:33.219Z,77.34
2024-02-06T01:45:33.219Z,77.75
2024-02-06T01:46:33.282Z,78.27
2024-02-06T01:47:33.211Z,78.47
2024-02-06T01:48:33.342Z,78.67
2024-02-06T01:49:33.290Z,78.88
2024-02-06T01:50:33.134Z,78.88
2024-02-06T01:51:33.135Z,78.98
2024-02-06T01:52:33.202Z,79.22
2024-02-06T01:53:33.127Z,79.33
2024-02-06T01:54:33.140Z,79.53
2024-02-06T01:55:33.161Z,79.53
2024-02-06T01:56:33.098Z,79.63
2024-02-06T01:57:33.074Z,79.84
2024-02-06T01:58:33.221Z,79.94
2024-02-06T01:59:33.131Z,80.15
2024-02-06T02:00:33.049Z,80.35
2024-02-06T02:01:33.148Z,80.35
2024-02-06T02:02:33.032Z,80.05
2024-02-06T02:03:33.030Z,80.15
2024-02-06T02:04:33.125Z,80.35
2024-02-06T02:05:34.719Z,80.46
2024-02-06T02:06:33.068Z,80.56
2024-02-06T02:07:33.075Z,80.87
2024-02-06T02:08:33.088Z,81.07
2024-02-06T02:09:32.958Z,81.07
2024-02-06T02:10:32.980Z,81.21
2024-02-06T02:11:32.999Z,81.52
2024-02-06T02:12:32.966Z,81.62
2024-02-06T02:13:32.974Z,81.62
2024-02-06T02:14:32.895Z,81.93
2024-02-06T02:15:32.881Z,81.73
2024-02-06T02:16:32.956Z,81.73
2024-02-06T02:17:32.872Z,81.93
2024-02-06T02:18:32.989Z,81.73
2024-02-06T02:19:32.894Z,81.73
2024-02-06T02:20:32.820Z,81.83
2024-02-06T02:21:32.823Z,81.73
2024-02-06T02:22:32.898Z,81.93
2024-02-06T02:23:32.801Z,81.93
2024-02-06T02:24:32.786Z,82.04
2024-02-06T02:25:32.840Z,82.04
2024-02-06T02:26:32.746Z,82.14
2024-02-06T02:27:32.860Z,82.45
2024-02-06T02:28:32.887Z,82.55
2024-02-06T02:29:32.731Z,82.65
2024-02-06T02:30:32.725Z,82.65
2024-02-06T02:31:32.800Z,82.86
2024-02-06T02:32:32.723Z,82.96
2024-02-06T02:33:32.747Z,82.96
2024-02-06T02:34:32.759Z,83.06
2024-02-06T02:35:32.662Z,83.06
2024-02-06T02:36:32.690Z,83.27
2024-02-06T02:37:32.715Z,83.27
2024-02-06T02:38:32.620Z,83.37
2024-02-06T02:39:32.638Z,83.27
2024-02-06T02:40:32.670Z,83.27
2024-02-06T02:41:32.578Z,83.27
2024-02-06T02:42:32.594Z,83.48
2024-02-06T02:43:32.833Z,83.48
2024-02-06T02:44:32.575Z,83.37
2024-02-06T02:45:32.562Z,83.37
2024-02-06T02:46:32.660Z,83.27
2024-02-06T02:47:32.528Z,83.17
2024-02-06T02:48:32.706Z,82.96
2024-02-06T02:49:32.618Z,82.96
2024-02-06T02:50:32.505Z,82.86
2024-02-06T02:51:32.546Z,82.65
2024-02-06T02:52:32.619Z,82.86
2024-02-06T02:53:32.470Z,82.96
2024-02-06T02:54:32.452Z,82.76
2024-02-06T02:55:32.498Z,82.65
2024-02-06T02:56:32.441Z,82.76
2024-02-06T02:57:32.434Z,82.65
2024-02-06T02:58:32.478Z,82.65
2024-02-06T02:59:32.398Z,82.76
2024-02-06T03:00:32.383Z,82.76
2024-02-06T03:01:32.502Z,82.76
2024-02-06T03:02:32.363Z,82.76
2024-02-06T03:03:32.386Z,82.86
2024-02-06T03:04:32.374Z,82.96
2024-02-06T03:05:32.375Z,82.86
2024-02-06T03:06:32.342Z,82.96
2024-02-06T03:07:32.352Z,83.06
2024-02-06T03:08:32.328Z,83.06
2024-02-06T03:09:32.323Z,82.96
2024-02-06T03:10:32.320Z,83.17
2024-02-06T03:11:32.254Z,83.27
2024-02-06T03:12:32.264Z,83.17
2024-02-06T03:13:32.361Z,83.27
2024-02-06T03:14:32.236Z,83.37
2024-02-06T03:15:32.232Z,83.37
2024-02-06T03:16:32.312Z,83.27
2024-02-06T03:17:32.236Z,83.37
2024-02-06T03:18:32.271Z,83.27
2024-02-06T03:19:32.261Z,83.58
2024-02-06T03:20:32.191Z,83.48
2024-02-06T03:21:32.165Z,83.48
2024-02-06T03:22:32.160Z,83.48
2024-02-06T03:23:32.201Z,83.58
2024-02-06T03:24:32.144Z,83.58
2024-02-06T03:25:32.194Z,83.68
2024-02-06T03:26:32.131Z,83.58
2024-02-06T03:27:32.154Z,83.58
2024-02-06T03:28:32.203Z,83.58
2024-02-06T03:29:32.098Z,83.48
2024-02-06T03:30:32.082Z,83.48
2024-02-06T03:31:32.077Z,83.37
2024-02-06T03:32:32.053Z,83.27
2024-02-06T03:33:32.077Z,83.27
2024-02-06T03:34:32.132Z,83.27
2024-02-06T03:35:32.020Z,82.96
2024-02-06T03:36:32.009Z,83.17
2024-02-06T03:37:32.011Z,82.86
2024-02-06T03:38:32.027Z,82.86
2024-02-06T03:39:31.979Z,82.86
2024-02-06T03:40:32.044Z,82.86
2024-02-06T03:41:31.964Z,82.86
2024-02-06T03:42:31.928Z,82.76
2024-02-06T03:43:31.956Z,82.86
2024-02-06T03:44:31.907Z,82.86
2024-02-06T03:45:31.911Z,82.86
2024-02-06T03:46:32.027Z,82.96
2024-02-06T03:47:31.938Z,83.06
2024-02-06T03:48:31.995Z,82.86
2024-02-06T03:49:31.954Z,82.86
2024-02-06T03:50:31.858Z,82.86
2024-02-06T03:51:32.039Z,82.86
2024-02-06T03:52:32.000Z,82.65
2024-02-06T03:53:31.810Z,82.65
2024-02-06T03:54:31.888Z,82.55
2024-02-06T03:55:31.889Z,82.34
2024-02-06T03:56:31.867Z,82.34
2024-02-06T03:57:31.856Z,82.34
2024-02-06T03:58:31.971Z,82.14
2024-02-06T03:59:31.840Z,82.24
2024-02-06T04:00:31.887Z,82.24
2024-02-06T04:01:31.889Z,82.34
2024-02-06T04:02:31.838Z,82.14
2024-02-06T04:03:31.869Z,82.14
2024-02-06T04:04:31.774Z,82.04
2024-02-06T04:05:31.685Z,82.14
2024-02-06T04:06:31.712Z,81.83
2024-02-06T04:07:31.762Z,81.73
2024-02-06T04:08:31.737Z,81.62
2024-02-06T04:09:31.664Z,81.52
2024-02-06T04:10:31.668Z,81.28
2024-02-06T04:11:31.630Z,81.18
2024-02-06T04:12:31.625Z,81.28
2024-02-06T04:13:31.632Z,81.38
2024-02-06T04:14:31.605Z,81.28
2024-02-06T04:15:31.658Z,81.38
2024-02-06T04:16:31.615Z,81.07
2024-02-06T04:17:31.592Z,80.97
2024-02-06T04:18:31.647Z,80.87
2024-02-06T04:19:31.636Z,80.97
2024-02-06T04:20:31.532Z,80.77
2024-02-06T04:21:31.513Z,80.87
2024-02-06T04:22:31.571Z,81.07
2024-02-06T04:23:31.505Z,80.97
2024-02-06T04:24:31.495Z,80.87
2024-02-06T04:25:31.512Z,80.87
2024-02-06T04:26:31.492Z,80.77
2024-02-06T04:27:31.452Z,80.77
2024-02-06T04:28:31.541Z,80.87
2024-02-06T04:29:31.441Z,80.87
2024-02-06T04:30:31.408Z,80.77
2024-02-06T04:31:31.489Z,80.77
2024-02-06T04:32:31.481Z,80.87
2024-02-06T04:33:31.481Z,80.66
2024-02-06T04:34:31.487Z,80.77
2024-02-06T04:35:31.384Z,80.77
2024-02-06T04:36:31.355Z,80.87
2024-02-06T04:37:31.408Z,80.77
2024-02-06T04:38:31.401Z,80.77
2024-02-06T04:39:31.323Z,80.77
2024-02-06T04:40:31.444Z,80.77
2024-02-06T04:41:31.333Z,80.87
2024-02-06T04:42:31.306Z,80.77
2024-02-06T04:43:31.377Z,80.87
2024-02-06T04:44:31.257Z,80.87
2024-02-06T04:45:31.294Z,80.77
2024-02-06T04:46:31.326Z,80.97
2024-02-06T04:47:31.271Z,80.97
2024-02-06T04:48:31.356Z,80.97
2024-02-06T04:49:31.441Z,81.07
2024-02-06T04:50:31.196Z,81.07
2024-02-06T04:51:31.207Z,81.28
2024-02-06T04:52:31.190Z,81.28
2024-02-06T04:53:31.161Z,81.28
2024-02-06T04:54:31.176Z,81.28
2024-02-06T04:55:31.160Z,81.28
2024-02-06T04:56:31.139Z,81.38
2024-02-06T04:57:31.123Z,81.48
2024-02-06T04:58:31.285Z,81.38
2024-02-06T04:59:31.131Z,81.38
2024-02-06T05:00:31.153Z,81.38
2024-02-06T05:01:31.159Z,81.48
2024-02-06T05:02:31.073Z,81.59
2024-02-06T05:03:31.107Z,81.69
2024-02-06T05:04:31.187Z,81.90
2024-02-06T05:05:31.057Z,81.90
2024-02-06T05:06:31.132Z,82.00
2024-02-06T05:07:31.178Z,82.10
2024-02-06T05:08:31.333Z,82.20
2024-02-06T05:09:31.013Z,82.20
2024-02-06T05:10:31.039Z,82.20
2024-02-06T05:11:30.978Z,82.41
2024-02-06T05:12:30.971Z,82.51
2024-02-06T05:13:30.991Z,82.55
2024-02-06T05:14:30.934Z,82.55
2024-02-06T05:15:30.929Z,82.76
2024-02-06T05:16:30.980Z,82.65
2024-02-06T05:17:30.971Z,82.71
2024-02-06T05:18:31.399Z,82.65
2024-02-06T05:19:30.985Z,82.65
2024-02-06T05:20:30.870Z,82.71
2024-02-06T05:21:30.866Z,82.62
2024-02-06T05:22:30.908Z,82.71
2024-02-06T05:23:30.862Z,82.82
2024-02-06T05:24:30.852Z,82.82
2024-02-06T05:25:30.867Z,82.96
2024-02-06T05:26:30.822Z,82.86
2024-02-06T05:27:30.820Z,83.06
2024-02-06T05:28:30.885Z,82.96
2024-02-06T05:29:31.866Z,82.82
2024-02-06T05:30:30.876Z,82.86
2024-02-06T05:31:30.817Z,82.82
2024-02-06T05:32:30.818Z,82.82
2024-02-06T05:33:30.774Z,82.82
2024-02-06T05:34:30.870Z,82.71
2024-02-06T05:35:30.740Z,82.71
2024-02-06T05:36:30.723Z,82.71
2024-02-06T05:37:30.755Z,82.62
2024-02-06T05:38:30.731Z,82.62
2024-02-06T05:39:30.698Z,82.62
2024-02-06T05:40:30.705Z,82.71
2024-02-06T05:41:30.743Z,82.51
2024-02-06T05:42:30.646Z,82.62
2024-02-06T05:43:30.688Z,82.62
2024-02-06T05:44:30.682Z,82.62
2024-02-06T05:45:30.737Z,82.62
2024-02-06T05:46:30.638Z,82.31
2024-02-06T05:47:30.645Z,82.20
2024-02-06T05:48:30.712Z,82.20
2024-02-06T05:49:30.670Z,82.31
2024-02-06T05:50:31.046Z,82.10
2024-02-06T05:51:30.550Z,82.10
2024-02-06T05:52:30.582Z,82.00
2024-02-06T05:53:30.531Z,82.00
2024-02-06T05:54:30.560Z,82.00
2024-02-06T05:55:30.697Z,82.00
2024-02-06T05:56:30.520Z,82.00
2024-02-06T05:57:30.499Z,81.90
2024-02-06T05:58:30.565Z,81.69
2024-02-06T05:59:30.474Z,81.69
2024-02-06T06:00:30.492Z,81.59
2024-02-06T06:01:30.557Z,81.38
2024-02-06T06:02:30.449Z,81.28
2024-02-06T06:03:30.417Z,81.28
2024-02-06T06:04:31.366Z,81.18
2024-02-06T06:05:30.537Z,81.28
2024-02-06T06:06:30.439Z,81.07
2024-02-06T06:07:30.501Z,80.83
2024-02-06T06:08:30.373Z,80.83
2024-02-06T06:09:30.352Z,80.83
2024-02-06T06:10:30.403Z,80.93
2024-02-06T06:11:30.360Z,80.83
2024-02-06T06:12:30.327Z,80.63
2024-02-06T06:13:30.432Z,80.73
2024-02-06T06:14:30.288Z,80.42
2024-02-06T06:15:30.310Z,80.42
2024-02-06T06:16:30.336Z,80.42
2024-02-06T06:17:30.319Z,80.32
2024-02-06T06:18:30.338Z,80.42
2024-02-06T06:19:30.338Z,80.42
2024-02-06T06:20:30.239Z,80.42
2024-02-06T06:21:30.211Z,80.21
2024-02-06T06:22:30.257Z,80.21
2024-02-06T06:23:30.214Z,80.11
2024-02-06T06:24:30.225Z,80.21
2024-02-06T06:25:30.219Z,80.42
2024-02-06T06:26:30.169Z,80.21
2024-02-06T06:27:30.173Z,80.32
2024-02-06T06:28:30.232Z,80.32
2024-02-06T06:29:30.202Z,80.21
2024-02-06T06:30:30.140Z,80.21
2024-02-06T06:31:30.153Z,80.01
2024-02-06T06:32:30.124Z,79.91
2024-02-06T06:33:30.172Z,80.01
2024-02-06T06:34:30.155Z,79.91
2024-02-06T06:35:30.056Z,79.91
2024-02-06T06:36:30.058Z,79.91
2024-02-06T06:37:30.085Z,79.91
2024-02-06T06:38:30.052Z,80.01
2024-02-06T06:39:30.054Z,80.01
2024-02-06T06:40:30.014Z,80.11
2024-02-06T06:41:30.005Z,80.11
2024-02-06T06:42:30.043Z,80.11
2024-02-06T06:43:30.561Z,80.21
2024-02-06T06:44:29.999Z,80.11
2024-02-06T06:45:29.975Z,80.21
2024-02-06T06:46:29.975Z,80.11
2024-02-06T06:47:30.005Z,80.11
2024-02-06T06:48:29.973Z,80.07
2024-02-06T06:49:29.995Z,80.21
2024-02-06T06:50:29.925Z,80.32
2024-02-06T06:51:29.887Z,80.32
2024-02-06T06:52:29.951Z,80.21
2024-02-06T06:53:29.865Z,80.28
2024-02-06T06:54:29.880Z,80.32
2024-02-06T06:55:29.871Z,80.18
2024-02-06T06:56:29.844Z,80.18
2024-02-06T06:57:29.888Z,80.18
2024-02-06T06:58:29.891Z,80.28
2024-02-06T06:59:29.805Z,80.28
2024-02-06T07:00:29.889Z,80.28
2024-02-06T07:01:29.957Z,80.28
2024-02-06T07:02:29.781Z,80.18
2024-02-06T07:03:29.854Z,80.07
2024-02-06T07:04:30.005Z,79.97
2024-02-06T07:05:29.741Z,79.97
2024-02-06T07:06:29.889Z,79.97
2024-02-06T07:07:29.764Z,79.77
2024-02-06T07:08:29.735Z,79.87
2024-02-06T07:09:29.734Z,79.77
2024-02-06T07:10:29.751Z,79.66
2024-02-06T07:11:29.694Z,79.66
2024-02-06T07:12:29.676Z,79.66
2024-02-06T07:13:29.701Z,79.56
2024-02-06T07:14:29.688Z,79.66
2024-02-06T07:15:29.636Z,79.56
2024-02-06T07:16:29.658Z,79.66
2024-02-06T07:17:29.684Z,79.56
2024-02-06T07:18:29.639Z,79.46
2024-02-06T07:19:29.820Z,79.36
2024-02-06T07:20:29.592Z,79.46
2024-02-06T07:21:29.590Z,79.46
2024-02-06T07:22:29.618Z,79.36
2024-02-06T07:23:29.553Z,79.25
2024-02-06T07:24:29.555Z,79.15
2024-02-06T07:25:29.601Z,79.25
2024-02-06T07:26:29.518Z,79.36
2024-02-06T07:27:29.532Z,79.25
2024-02-06T07:28:29.569Z,79.46
2024-02-06T07:29:29.502Z,79.46
2024-02-06T07:30:34.413Z,79.46
2024-02-06T07:31:29.541Z,79.36
2024-02-06T07:32:29.551Z,79.36
2024-02-06T07:33:29.528Z,79.36
2024-02-06T07:34:29.494Z,79.36
2024-02-06T07:35:29.442Z,79.25
2024-02-06T07:36:29.407Z,79.32
2024-02-06T07:37:29.495Z,79.36
2024-02-06T07:38:29.397Z,79.25
2024-02-06T07:39:29.367Z,79.46
2024-02-06T07:40:29.431Z,79.25
2024-02-06T07:41:29.372Z,79.22
2024-02-06T07:42:29.359Z,79.22
2024-02-06T07:43:29.362Z,79.22
2024-02-06T07:44:29.318Z,79.42
2024-02-06T07:45:29.352Z,79.32
2024-02-06T07:46:29.386Z,79.32
2024-02-06T07:47:29.331Z,79.32
2024-02-06T07:48:29.321Z,79.32
2024-02-06T07:49:29.396Z,79.32
2024-02-06T07:50:29.268Z,79.22
2024-02-06T07:51:29.265Z,79.32
2024-02-06T07:52:29.306Z,79.32
2024-02-06T07:53:29.236Z,79.22
2024-02-06T07:54:29.244Z,79.22
2024-02-06T07:55:29.253Z,79.01
2024-02-06T07:56:31.173Z,79.01
2024-02-06T07:57:29.200Z,79.11
2024-02-06T07:58:29.211Z,79.01
2024-02-06T07:59:29.199Z,78.91
2024-02-06T08:00:29.163Z,78.91
2024-02-06T08:01:29.219Z,78.91
2024-02-06T08:02:29.146Z,78.91
2024-02-06T08:03:29.223Z,78.91
2024-02-06T08:04:29.204Z,78.91
2024-02-06T08:05:29.231Z,78.81
2024-02-06T08:06:29.189Z,78.91
2024-02-06T08:07:29.371Z,78.81
2024-02-06T08:08:29.141Z,78.81
2024-02-06T08:09:29.055Z,78.91
2024-02-06T08:10:29.093Z,78.91
2024-02-06T08:11:29.043Z,78.81
2024-02-06T08:12:29.043Z,78.81
2024-02-06T08:13:29.075Z,78.81
2024-02-06T08:14:28.998Z,78.87
2024-02-06T08:15:28.991Z,78.97
2024-02-06T08:16:29.077Z,78.87
2024-02-06T08:17:29.022Z,78.97
2024-02-06T08:18:29.069Z,78.97
2024-02-06T08:19:29.193Z,79.01
2024-02-06T08:20:29.015Z,79.01
2024-02-06T08:21:28.959Z,79.08
2024-02-06T08:22:28.945Z,79.11
2024-02-06T08:23:28.926Z,79.11
2024-02-06T08:24:28.951Z,79.11
2024-02-06T08:25:29.770Z,79.11
2024-02-06T08:26:28.937Z,79.11
2024-02-06T08:27:28.870Z,79.08
2024-02-06T08:28:28.896Z,78.87
2024-02-06T08:29:28.858Z,78.87
2024-02-06T08:30:28.857Z,78.87
2024-02-06T08:31:28.917Z,78.87
2024-02-06T08:32:28.849Z,78.67
2024-02-06T08:33:28.840Z,78.67
2024-02-06T08:34:28.880Z,78.67
2024-02-06T08:35:28.874Z,78.46
2024-02-06T08:36:29.252Z,78.36
2024-02-06T08:37:28.856Z,78.16
2024-02-06T08:38:29.067Z,78.16
2024-02-06T08:39:28.785Z,77.84
2024-02-06T08:40:28.829Z,77.95
2024-02-06T08:41:28.753Z,77.95
2024-02-06T08:42:28.696Z,77.74
2024-02-06T08:43:38.943Z,77.64
2024-02-06T08:44:28.743Z,77.84
2024-02-06T08:45:28.670Z,77.95
2024-02-06T08:46:30.082Z,77.84
2024-02-06T08:47:28.657Z,77.54
2024-02-06T08:48:28.707Z,77.54
2024-02-06T08:49:28.771Z,77.40
2024-02-06T08:50:28.718Z,77.40
2024-02-06T08:51:28.599Z,77.29
2024-02-06T08:52:28.689Z,77.20
2024-02-06T08:53:28.583Z,77.20
2024-02-06T08:54:28.559Z,76.99
2024-02-06T08:55:28.749Z,76.99
2024-02-06T08:56:28.565Z,76.99
2024-02-06T08:57:28.558Z,76.99
2024-02-06T08:58:28.966Z,77.09
2024-02-06T08:59:28.577Z,76.99
2024-02-06T09:00:28.523Z,76.68
2024-02-06T09:01:28.708Z,76.58
2024-02-06T09:02:28.661Z,76.68
2024-02-06T09:03:29.304Z,76.78
2024-02-06T09:04:28.594Z,76.58
2024-02-06T09:05:28.811Z,76.48
2024-02-06T09:06:28.569Z,76.27
2024-02-06T09:07:28.512Z,76.27
2024-02-06T09:08:28.432Z,76.37
2024-02-06T09:09:28.430Z,76.24
2024-02-06T09:10:29.096Z,76.17
2024-02-06T09:11:28.412Z,75.73
2024-02-06T09:12:28.381Z,75.93
2024-02-06T09:13:28.476Z,75.82
2024-02-06T09:14:28.380Z,75.82
2024-02-06T09:15:28.358Z,75.52
2024-02-06T09:16:28.472Z,75.52
2024-02-06T09:17:28.398Z,75.62
2024-02-06T09:18:28.451Z,75.31
2024-02-06T09:19:28.397Z,75.31
2024-02-06T09:20:28.470Z,75.11
2024-02-06T09:21:28.324Z,75.31
2024-02-06T09:22:28.335Z,75.21
2024-02-06T09:23:28.278Z,75.01
2024-02-06T09:24:28.263Z,74.80
2024-02-06T09:25:28.287Z,74.80
2024-02-06T09:26:28.263Z,74.70
2024-02-06T09:27:28.238Z,74.60
2024-02-06T09:28:28.272Z,74.60
2024-02-06T09:29:28.200Z,74.70
2024-02-06T09:30:28.189Z,74.80
2024-02-06T09:31:28.225Z,74.80
2024-02-06T09:32:28.194Z,74.60
2024-02-06T09:33:28.295Z,74.60
2024-02-06T09:34:28.219Z,74.60
2024-02-06T09:35:28.221Z,74.56
2024-02-06T09:36:28.119Z,74.56
2024-02-06T09:37:28.196Z,74.56
2024-02-06T09:38:28.125Z,74.36
2024-02-06T09:39:28.111Z,74.46
2024-02-06T09:40:28.122Z,74.46
2024-02-06T09:41:28.115Z,74.36
2024-02-06T09:42:28.082Z,74.36
2024-02-06T09:43:28.110Z,74.36
2024-02-06T09:44:28.030Z,74.46
2024-02-06T09:45:28.041Z,74.36
2024-02-06T09:46:28.060Z,74.36
2024-02-06T09:47:28.053Z,74.56
2024-02-06T09:48:28.080Z,74.36
2024-02-06T09:49:28.078Z,74.46
2024-02-06T09:50:27.970Z,74.26
2024-02-06T09:51:27.970Z,74.36
2024-02-06T09:52:27.990Z,74.36
2024-02-06T09:53:27.941Z,74.56
2024-02-06T09:54:27.989Z,74.36
2024-02-06T09:55:28.035Z,74.36
2024-02-06T09:56:27.937Z,74.46
2024-02-06T09:57:27.941Z,74.56
2024-02-06T09:58:28.134Z,74.36
2024-02-06T09:59:27.884Z,74.46
2024-02-06T10:00:27.894Z,74.53
2024-02-06T10:01:27.928Z,74.43
2024-02-06T10:02:27.846Z,74.02
2024-02-06T10:03:27.873Z,74.11
2024-02-06T10:04:27.953Z,74.11
2024-02-06T10:05:27.892Z,73.91
2024-02-06T10:06:27.887Z,74.11
2024-02-06T10:07:27.875Z,73.81
2024-02-06T10:08:27.823Z,73.91
2024-02-06T10:09:29.180Z,74.02
2024-02-06T10:10:27.801Z,74.02
2024-02-06T10:11:27.758Z,73.91
2024-02-06T10:12:27.766Z,74.02
2024-02-06T10:13:27.755Z,73.50
2024-02-06T10:14:27.713Z,73.71
2024-02-06T10:15:29.880Z,73.50
2024-02-06T10:16:27.726Z,73.50
2024-02-06T10:17:27.700Z,73.50
2024-02-06T10:18:27.705Z,73.61
2024-02-06T10:19:27.856Z,73.61
2024-02-06T10:20:27.670Z,73.40
2024-02-06T10:21:29.418Z,73.40
2024-02-06T10:22:27.652Z,73.40
2024-02-06T10:23:27.614Z,73.27
2024-02-06T10:24:27.600Z,73.06
2024-02-06T10:25:27.635Z,73.27
2024-02-06T10:26:27.600Z,73.27
2024-02-06T10:27:27.608Z,73.27
2024-02-06T10:28:27.618Z,73.06
2024-02-06T10:29:27.581Z,73.06
2024-02-06T10:30:27.554Z,72.86
2024-02-06T10:31:27.630Z,72.75
2024-02-06T10:32:27.533Z,72.86
2024-02-06T10:33:29.877Z,72.75
2024-02-06T10:34:28.311Z,72.86
2024-02-06T10:35:27.639Z,72.86
2024-02-06T10:36:27.500Z,72.96
2024-02-06T10:37:27.564Z,72.86
2024-02-06T10:38:27.475Z,72.96
2024-02-06T10:39:27.910Z,73.16
2024-02-06T10:40:27.452Z,73.16
2024-02-06T10:41:38.930Z,73.16
2024-02-06T10:43:08.274Z,73.03
2024-02-06T10:43:46.164Z,73.03
2024-02-06T10:44:27.488Z,73.06
2024-02-06T10:45:27.398Z,73.06
2024-02-06T10:46:27.387Z,73.27
2024-02-06T10:47:27.367Z,73.36
2024-02-06T10:48:27.452Z,73.16
2024-02-06T10:49:27.489Z,73.47
2024-02-06T10:50:27.492Z,73.36
2024-02-06T10:51:29.778Z,73.57
2024-02-06T10:52:27.354Z,73.57
2024-02-06T10:53:27.319Z,73.78
2024-02-06T10:54:27.338Z,73.88
2024-02-06T10:55:27.348Z,73.78
2024-02-06T10:56:27.317Z,73.78
2024-02-06T10:57:28.108Z,73.88
2024-02-06T10:58:27.278Z,73.88
2024-02-06T10:59:27.262Z,73.98
2024-02-06T11:00:27.295Z,73.98
2024-02-06T11:01:27.338Z,73.98
2024-02-06T11:02:27.271Z,73.88
2024-02-06T11:03:28.787Z,73.88
2024-02-06T11:04:27.272Z,73.88
2024-02-06T11:05:27.199Z,73.78
2024-02-06T11:06:27.215Z,73.88
2024-02-06T11:07:27.224Z,73.98
2024-02-06T11:08:27.131Z,74.19
2024-02-06T11:09:29.196Z,73.98
2024-02-06T11:10:27.174Z,74.08
2024-02-06T11:11:27.124Z,74.19
2024-02-06T11:12:34.703Z,73.88
2024-02-06T11:13:27.135Z,73.98
2024-02-06T11:14:27.078Z,73.68
2024-02-06T11:15:27.739Z,73.78
2024-02-06T11:16:27.221Z,73.88
2024-02-06T11:17:27.053Z,73.98
2024-02-06T11:18:27.087Z,73.98
2024-02-06T11:19:27.131Z,73.98
2024-02-06T11:20:27.093Z,74.08
2024-02-06T11:21:29.001Z,74.19
2024-02-06T11:22:27.047Z,74.29
2024-02-06T11:23:26.987Z,74.69
2024-02-06T11:24:26.967Z,75.04
2024-02-06T11:25:27.008Z,75.14
2024-02-06T11:26:26.943Z,75.35
2024-02-06T11:27:26.922Z,75.35
2024-02-06T11:28:27.073Z,75.35
2024-02-06T11:29:26.913Z,75.65
2024-02-06T11:30:26.886Z,75.55
2024-02-06T11:31:26.910Z,75.65
2024-02-06T11:32:26.938Z,75.55
2024-02-06T11:33:26.953Z,75.55
2024-02-06T11:34:26.901Z,75.65
2024-02-06T11:35:26.881Z,75.55
2024-02-06T11:36:26.854Z,75.55
2024-02-06T11:37:26.911Z,75.55
2024-02-06T11:38:26.823Z,75.76
2024-02-06T11:39:26.790Z,76.06
2024-02-06T11:40:26.845Z,75.96
2024-02-06T11:41:26.787Z,75.76
2024-02-06T11:42:26.786Z,75.96
2024-02-06T11:43:26.910Z,75.86
2024-02-06T11:44:26.777Z,75.65
2024-02-06T11:45:26.729Z,75.45
2024-02-06T11:46:26.830Z,75.45
2024-02-06T11:47:26.739Z,75.35
2024-02-06T11:48:27.628Z,75.35
2024-02-06T11:49:27.266Z,75.10
2024-02-06T11:50:28.519Z,75.31
2024-02-06T11:51:26.835Z,75.01
2024-02-06T11:52:26.733Z,74.90
2024-02-06T11:53:26.678Z,74.69
2024-02-06T11:54:26.790Z,74.80
2024-02-06T11:55:26.646Z,74.69
2024-02-06T11:56:26.661Z,74.90
2024-02-06T11:57:26.657Z,74.90
2024-02-06T11:58:26.677Z,74.80
2024-02-06T11:59:26.593Z,74.60
2024-02-06T12:00:26.592Z,74.39
2024-02-06T12:01:26.834Z,74.08
2024-02-06T12:02:26.642Z,73.78
2024-02-06T12:03:26.534Z,74.08
2024-02-06T12:04:26.584Z,73.94
2024-02-06T12:05:26.602Z,73.64
2024-02-06T12:06:26.578Z,73.54
2024-02-06T12:07:26.880Z,73.33
2024-02-06T12:08:27.583Z,73.44
2024-02-06T12:09:26.541Z,73.44
2024-02-06T12:10:26.496Z,73.23
2024-02-06T12:11:26.464Z,73.33
2024-02-06T12:12:26.458Z,73.33
2024-02-06T12:13:26.483Z,72.72
2024-02-06T12:14:26.415Z,72.92
2024-02-06T12:15:26.411Z,72.41
2024-02-06T12:16:26.416Z,72.62
2024-02-06T12:17:26.449Z,72.31
2024-02-06T12:18:26.422Z,72.41
2024-02-06T12:19:26.586Z,72.21
2024-02-06T12:20:26.497Z,72.00
2024-02-06T12:21:26.392Z,72.00
2024-02-06T12:22:26.398Z,72.00
2024-02-06T12:23:26.357Z,72.21
2024-02-06T12:24:26.326Z,71.70
2024-02-06T12:25:26.430Z,71.70
2024-02-06T12:26:26.317Z,71.59
2024-02-06T12:27:26.291Z,71.59
2024-02-06T12:28:26.333Z,71.46
2024-02-06T12:29:26.283Z,71.46
2024-02-06T12:30:26.272Z,71.56
2024-02-06T12:31:26.314Z,71.66
2024-02-06T12:32:26.317Z,71.66
2024-02-06T12:33:26.308Z,71.46
2024-02-06T12:34:26.369Z,71.46
2024-02-06T12:35:26.189Z,71.25
2024-02-06T12:36:26.199Z,71.15
2024-02-06T12:37:26.220Z,70.95
2024-02-06T12:38:26.195Z,70.95
2024-02-06T12:39:26.162Z,70.84
2024-02-06T12:40:26.226Z,71.05
2024-02-06T12:41:26.121Z,70.75
2024-02-06T12:42:26.112Z,70.75
2024-02-06T12:43:26.161Z,70.84
2024-02-06T12:44:41.267Z,70.75
2024-02-06T12:45:26.098Z,70.84
2024-02-06T12:46:26.109Z,70.95
2024-02-06T12:47:26.106Z,70.95
2024-02-06T12:48:26.095Z,71.05
2024-02-06T12:49:26.128Z,71.15
2024-02-06T12:50:26.131Z,71.15
2024-02-06T12:51:26.060Z,71.25
2024-02-06T12:52:26.068Z,71.25